Impacts METAR Board
IDs:

KLGA - New York/La Guardia, NY, US

Updated at: 2200 UTC 21 May 2022
Potential Impact None Slight Moderate High
Time 21/10Z 21/11Z 21/12Z 21/13Z 21/14Z 21/15Z 21/16Z 21/17Z 21/18Z 21/19Z 21/20Z 21/21Z 21/22Z
Temp60 62 62 64 70 76 81 86 88 91 87 87 85
Dewpt59 61 61 63 64 66 66 66 66 65 63 64 63
Altim29.95 29.97 30.00 30.03 30.02 30.02 30.01 29.99 29.99 29.98 29.98 29.98 29.99
VIS0.13 0.13 0.25 0.25 6 9 10 10 10 10 10 10 10
CIG2 2 2 2 6 -- -- -- -- -- 250 -- --
CoverOVXOVXOVCOVCBKNSCTSCTSCTFEWFEWBKNSCTSCT
FltCatLIFRLIFRLIFRLIFRIFRVFRVFRVFRVFRVFRVFRVFRVFR
WXFGFGBRFGHZ----------------
WDir0003203103203200340180170170170
WSpd0 0 0 3 5 3 4 0 3 9 10 10 10
WGst-- -- -- -- -- -- -- -- -- -- -- -- --
Raw hourly METARs
KLGA 210951Z 00000KT 1/8SM R04/1600V2000FT FG VV002 16/15 A2995 RMK AO2 SFC VIS 1/4 SLP142 T01560150
KLGA 211051Z 00000KT 1/8SM R04/1600V2400FT FG VV002 17/16 A2997 RMK AO2 SFC VIS 1/4 SLP150 T01670161
KLGA 211151Z 00000KT 1/4SM R04/P6000FT BR OVC002 17/16 A3000 RMK AO2 SFC VIS 3/4 SLP158 70044 T01670161 10167 20150 51017
KLGA 211251Z 32003KT 1/4SM R04/P6000FT FG OVC002 18/17 A3003 RMK AO2 SFC VIS 1/2 SLP169 T01780172
KLGA 211351Z 31005KT 6SM HZ BKN006 BKN250 21/18 A3002 RMK AO2 SLP166 T02110178
KLGA 211451Z 32003KT 9SM SCT250 24/19 A3002 RMK AO2 SLP165 T02440189 50007
KLGA 211551Z 32004KT 10SM SCT250 27/19 A3001 RMK AO2 SLP163 T02720189
KLGA 211651Z 00000KT 10SM SCT250 30/19 A2999 RMK AO2 SLP155 T03000189
KLGA 211751Z 34003KT 10SM FEW250 31/19 A2999 RMK AO2 SLP155 T03110189 10317 20167 56010
KLGA 211851Z 18009KT 10SM FEW250 33/18 A2998 RMK AO2 SLP153 T03280183
KLGA 211951Z 17010KT 10SM BKN250 31/17 A2998 RMK AO2 SLP153 T03060172
KLGA 212051Z 17010KT 10SM SCT250 31/18 A2998 RMK AO2 SLP154 T03060178 55001
KLGA 212151Z 17010KT 10SM FEW070 SCT250 29/17 A2999 RMK AO2 SLP154 T02940172



Page loaded:  22:37 UTC  |   03:37 PM Pacific  |   04:37 PM Mountain  |   05:37 PM Central  |   06:37 PM Eastern

 

ADVISORIES

FORECASTS

FORECASTS

OBSERVATIONS

USER TOOLS

ABOUT US